createdAt,value
2018-12-03T00:01:31.978Z,24.67
2018-12-03T00:04:32.740Z,22.60
2018-12-03T00:07:01.700Z,24.50
2018-12-03T00:09:30.643Z,25.07
2018-12-03T00:11:59.599Z,25.67
2018-12-03T00:14:28.579Z,27.00
2018-12-03T00:16:57.567Z,24.63
2018-12-03T00:19:26.528Z,25.97
2018-12-03T00:21:55.471Z,23.73
2018-12-03T00:24:24.490Z,25.90
2018-12-03T00:26:53.481Z,24.37
2018-12-03T00:29:22.514Z,26.90
2018-12-03T00:31:51.496Z,24.57
2018-12-03T00:34:20.467Z,22.97
2018-12-03T00:36:49.484Z,24.90
2018-12-03T00:39:18.472Z,24.80
2018-12-03T00:41:47.471Z,24.30
2018-12-03T00:44:16.407Z,25.93
2018-12-03T00:46:45.344Z,25.13
2018-12-03T00:49:14.284Z,24.80
2018-12-03T00:51:43.419Z,25.47
2018-12-03T00:54:12.352Z,26.57
2018-12-03T00:56:41.336Z,25.50
2018-12-03T00:59:10.421Z,25.93
2018-12-03T01:01:39.429Z,24.37
2018-12-03T01:04:08.454Z,25.63
2018-12-03T01:06:37.521Z,24.00
2018-12-03T01:09:08.959Z,25.87
2018-12-03T01:11:38.165Z,25.90
2018-12-03T01:14:07.227Z,26.30
2018-12-03T01:16:36.182Z,24.63
2018-12-03T01:19:05.261Z,24.43
2018-12-03T01:21:34.208Z,24.07
2018-12-03T01:24:03.185Z,23.53
2018-12-03T01:26:32.152Z,24.77
2018-12-03T01:29:01.086Z,25.37
2018-12-03T01:31:30.002Z,26.67
2018-12-03T01:33:58.981Z,25.17
2018-12-03T01:36:28.000Z,26.77
2018-12-03T01:38:57.002Z,25.60
2018-12-03T01:41:26.059Z,26.60
2018-12-03T01:43:55.023Z,25.40
2018-12-03T01:46:23.950Z,24.03
2018-12-03T01:48:52.896Z,25.03
2018-12-03T01:51:21.950Z,25.93
2018-12-03T01:53:51.033Z,24.73
2018-12-03T01:56:19.982Z,24.33
2018-12-03T01:58:48.972Z,25.10
2018-12-03T02:01:17.910Z,26.40
2018-12-03T02:03:46.865Z,23.83
2018-12-03T02:06:15.805Z,24.67
2018-12-03T02:08:44.776Z,28.20
2018-12-03T02:11:13.816Z,25.33
2018-12-03T02:13:42.872Z,27.30
2018-12-03T02:16:11.886Z,26.67
2018-12-03T02:18:40.846Z,26.10
2018-12-03T02:21:09.858Z,26.53
2018-12-03T02:23:38.814Z,26.90
2018-12-03T02:26:07.770Z,25.43
2018-12-03T02:28:36.732Z,25.27
2018-12-03T02:31:06.059Z,23.83
2018-12-03T02:33:35.078Z,24.40
2018-12-03T02:36:04.090Z,24.83
2018-12-03T02:38:33.066Z,26.07
2018-12-03T02:41:02.140Z,25.27
2018-12-03T02:43:31.203Z,25.37
2018-12-03T02:46:00.278Z,26.53
2018-12-03T02:48:29.393Z,26.90
2018-12-03T02:50:58.526Z,26.40
2018-12-03T02:53:27.486Z,26.50
2018-12-03T02:55:56.576Z,26.83
2018-12-03T02:58:25.490Z,27.57
2018-12-03T03:00:54.426Z,27.40
2018-12-03T03:03:23.453Z,25.80
2018-12-03T03:05:52.382Z,27.10
2018-12-03T03:08:21.399Z,25.63
2018-12-03T03:10:50.398Z,27.57
2018-12-03T03:13:19.356Z,25.90
2018-12-03T03:15:48.293Z,26.50
2018-12-03T03:18:17.294Z,26.50
2018-12-03T03:20:46.244Z,28.37
2018-12-03T03:23:15.327Z,28.93
2018-12-03T03:25:44.364Z,27.60
2018-12-03T03:28:13.389Z,27.43
2018-12-03T03:30:42.411Z,27.23
2018-12-03T03:33:11.358Z,28.33
2018-12-03T03:35:40.333Z,29.67
2018-12-03T03:38:09.306Z,28.17
2018-12-03T03:40:38.248Z,28.23
2018-12-03T03:43:07.527Z,28.00
2018-12-03T03:45:36.471Z,30.17
2018-12-03T03:48:05.824Z,30.23
2018-12-03T03:50:34.893Z,30.83
2018-12-03T03:53:03.962Z,29.63
2018-12-03T03:55:32.948Z,30.77
2018-12-03T03:58:03.820Z,32.10
2018-12-03T04:00:32.760Z,30.90
2018-12-03T04:03:01.873Z,31.20
2018-12-03T04:05:30.789Z,32.13
2018-12-03T04:07:59.716Z,30.80
2018-12-03T04:10:28.621Z,31.23
2018-12-03T04:12:57.527Z,31.50
2018-12-03T04:15:26.419Z,32.07
2018-12-03T04:17:55.368Z,29.73
2018-12-03T04:20:24.307Z,29.63
2018-12-03T04:22:54.601Z,29.97
2018-12-03T04:25:23.772Z,28.60
2018-12-03T04:27:52.767Z,27.87
2018-12-03T04:30:22.753Z,30.53
2018-12-03T04:32:52.780Z,29.63
2018-12-03T04:35:22.249Z,26.90
2018-12-03T04:37:51.370Z,28.73
2018-12-03T04:40:20.421Z,28.20
2018-12-03T04:42:49.446Z,28.23
2018-12-03T04:45:19.121Z,28.90
2018-12-03T04:47:50.967Z,28.57
2018-12-03T04:50:21.889Z,28.93
2018-12-03T04:52:50.874Z,28.83
2018-12-03T04:55:20.916Z,29.00
2018-12-03T04:57:50.199Z,29.23
2018-12-03T05:00:20.315Z,30.43
2018-12-03T05:02:50.818Z,25.87
2018-12-03T05:05:20.079Z,27.90
2018-12-03T05:07:49.125Z,29.20
2018-12-03T05:10:19.368Z,27.10
2018-12-03T05:12:49.833Z,31.17
2018-12-03T05:15:18.866Z,30.27
2018-12-03T05:17:47.877Z,28.60
2018-12-03T05:20:19.336Z,30.53
2018-12-03T05:22:48.304Z,31.37
2018-12-03T05:25:19.451Z,28.60
2018-12-03T05:27:47.079Z,28.20
2018-12-03T05:30:17.125Z,31.20
2018-12-03T05:32:46.888Z,29.27
2018-12-03T05:35:17.467Z,31.23
2018-12-03T05:37:46.481Z,30.53
2018-12-03T05:40:17.684Z,30.57
2018-12-03T05:42:46.872Z,28.83
2018-12-03T05:45:15.897Z,33.00
2018-12-03T05:47:44.894Z,31.63
2018-12-03T05:50:15.626Z,32.63
2018-12-03T05:52:45.839Z,33.20
2018-12-03T05:55:15.133Z,31.17
2018-12-03T05:57:44.611Z,32.60
2018-12-03T06:00:19.259Z,31.47
2018-12-03T06:02:48.211Z,33.10
2018-12-03T06:05:17.271Z,32.40
2018-12-03T06:07:46.279Z,34.93
2018-12-03T06:10:19.980Z,34.90
2018-12-03T06:12:48.979Z,34.10
2018-12-03T06:15:19.040Z,33.50
2018-12-03T06:17:49.189Z,33.30
2018-12-03T06:20:19.040Z,32.63
2018-12-03T06:22:48.838Z,34.70
2018-12-03T06:25:19.110Z,34.37
2018-12-03T06:27:48.160Z,35.33
2018-12-03T06:30:19.547Z,33.03
2018-12-03T06:32:48.469Z,35.00
2018-12-03T06:35:19.169Z,35.47
2018-12-03T06:37:48.360Z,34.67
2018-12-03T06:40:22.649Z,34.10
2018-12-03T06:42:51.568Z,33.67
2018-12-03T06:45:21.530Z,34.20
2018-12-03T06:47:53.724Z,33.27
2018-12-03T06:50:22.716Z,33.40
2018-12-03T06:52:51.609Z,32.33
2018-12-03T06:55:20.552Z,34.57
2018-12-03T06:57:49.504Z,33.27
2018-12-03T07:00:20.066Z,34.00
2018-12-03T07:02:48.973Z,32.70
2018-12-03T07:05:17.890Z,31.47
2018-12-03T07:07:48.006Z,33.33
2018-12-03T07:10:18.927Z,32.13
2018-12-03T07:12:49.369Z,33.40
2018-12-03T07:15:19.787Z,34.07
2018-12-03T07:17:51.161Z,34.67
2018-12-03T07:20:20.125Z,34.97
2018-12-03T07:22:49.092Z,34.87
2018-12-03T07:25:18.018Z,36.63
2018-12-03T07:27:46.953Z,34.40
2018-12-03T07:30:18.158Z,35.57
2018-12-03T07:32:48.080Z,31.93
2018-12-03T07:35:17.529Z,31.87
2018-12-03T07:37:46.575Z,33.37
2018-12-03T07:40:15.508Z,35.10
2018-12-03T07:42:44.421Z,34.10
2018-12-03T07:45:16.405Z,31.90
2018-12-03T07:47:45.399Z,32.90
2018-12-03T07:50:16.093Z,35.50
2018-12-03T07:52:45.059Z,34.73
2018-12-03T07:55:17.122Z,34.30
2018-12-03T07:58:19.738Z,35.47
2018-12-03T08:00:51.333Z,33.57
2018-12-03T08:03:20.298Z,32.30
2018-12-03T08:05:49.209Z,34.40
2018-12-03T08:08:18.161Z,34.30
2018-12-03T08:10:52.220Z,31.77
2018-12-03T08:13:21.405Z,32.13
2018-12-03T08:15:50.284Z,32.00
2018-12-03T08:18:20.813Z,34.73
2018-12-03T08:20:56.045Z,33.73
2018-12-03T08:23:33.149Z,34.37
2018-12-03T08:26:02.336Z,30.17
2018-12-03T08:28:31.491Z,31.63
2018-12-03T08:31:00.432Z,31.77
2018-12-03T08:33:29.389Z,31.90
2018-12-03T08:35:58.332Z,34.53
2018-12-03T08:38:27.250Z,33.30
2018-12-03T08:40:56.192Z,30.63
2018-12-03T08:43:25.090Z,31.40
2018-12-03T08:45:58.604Z,31.10
2018-12-03T08:48:28.949Z,32.27
2018-12-03T08:50:57.858Z,32.40
2018-12-03T08:53:26.809Z,32.70
2018-12-03T08:55:55.712Z,34.67
2018-12-03T08:58:24.633Z,34.27
2018-12-03T09:00:53.631Z,34.00
2018-12-03T09:03:25.286Z,33.77
2018-12-03T09:05:54.779Z,32.60
2018-12-03T09:08:23.741Z,29.53
2018-12-03T09:10:53.021Z,29.83
2018-12-03T09:13:23.292Z,31.27
2018-12-03T09:15:58.648Z,30.50
2018-12-03T09:18:42.298Z,29.93
2018-12-03T09:21:15.494Z,31.60
2018-12-03T09:23:45.885Z,31.13
2018-12-03T09:26:15.449Z,30.00
2018-12-03T09:28:44.381Z,32.50
2018-12-03T09:31:18.111Z,32.30
2018-12-03T09:33:55.324Z,34.43
2018-12-03T09:36:24.593Z,33.37
2018-12-03T09:39:01.932Z,31.67
2018-12-03T09:41:30.914Z,32.43
2018-12-03T09:43:59.847Z,33.30
2018-12-03T09:46:28.783Z,33.80
2018-12-03T09:48:58.825Z,32.67
2018-12-03T09:51:31.477Z,31.30
2018-12-03T09:54:00.711Z,32.73
2018-12-03T09:56:34.749Z,32.97
2018-12-03T09:59:10.254Z,31.50
2018-12-03T10:01:39.318Z,29.13
2018-12-03T10:04:16.233Z,30.10
2018-12-03T10:06:45.129Z,28.57
2018-12-03T10:09:14.165Z,27.60
2018-12-03T10:11:43.135Z,28.77
2018-12-03T10:14:15.018Z,30.03
2018-12-03T10:16:41.815Z,30.80
2018-12-03T10:19:10.756Z,30.23
2018-12-03T10:21:39.789Z,30.77
2018-12-03T10:24:13.031Z,30.63
2018-12-03T10:26:42.022Z,29.67
2018-12-03T10:29:15.764Z,29.83
2018-12-03T10:31:44.847Z,30.33
2018-12-03T10:34:17.757Z,28.67
2018-12-03T10:36:54.541Z,28.70
2018-12-03T10:39:25.845Z,29.23
2018-12-03T10:42:01.487Z,27.23
2018-12-03T10:44:30.450Z,28.17
2018-12-03T10:46:59.445Z,28.80
2018-12-03T10:49:28.356Z,28.17
2018-12-03T10:51:57.327Z,28.07
2018-12-03T10:54:26.243Z,27.33
2018-12-03T10:56:55.245Z,28.67
2018-12-03T10:59:24.220Z,27.63
2018-12-03T11:01:59.375Z,26.90
2018-12-03T11:04:38.644Z,27.90
2018-12-03T11:07:11.585Z,27.93
2018-12-03T11:09:40.559Z,26.13
2018-12-03T11:12:09.533Z,26.30
2018-12-03T11:14:38.518Z,26.17
2018-12-03T11:17:08.261Z,26.93
2018-12-03T11:19:37.208Z,27.33
2018-12-03T11:22:06.713Z,29.10
2018-12-03T11:24:35.654Z,29.40
2018-12-03T11:27:04.749Z,26.23
2018-12-03T11:29:40.104Z,28.57
2018-12-03T11:32:09.095Z,28.03
2018-12-03T11:34:37.999Z,27.90
2018-12-03T11:37:12.641Z,26.30
2018-12-03T11:39:51.235Z,28.33
2018-12-03T11:42:20.209Z,28.77
2018-12-03T11:44:49.147Z,27.00
2018-12-03T11:47:18.097Z,26.93
2018-12-03T11:49:47.035Z,26.83
2018-12-03T11:52:15.933Z,27.97
2018-12-03T11:54:44.872Z,26.63
2018-12-03T11:57:13.809Z,29.30
2018-12-03T11:59:42.712Z,26.87
2018-12-03T12:02:11.764Z,30.67
2018-12-03T12:04:40.688Z,27.20
2018-12-03T12:07:09.601Z,30.30
2018-12-03T12:09:38.534Z,29.17
2018-12-03T12:12:07.574Z,28.53
2018-12-03T12:14:36.460Z,29.33
2018-12-03T12:17:05.713Z,28.67
2018-12-03T12:19:34.626Z,31.03
2018-12-03T12:22:03.588Z,28.37
2018-12-03T12:24:32.703Z,28.63
2018-12-03T12:27:01.804Z,28.73
2018-12-03T12:29:30.722Z,28.37
2018-12-03T12:31:59.623Z,29.00
2018-12-03T12:34:28.620Z,25.13
2018-12-03T12:36:57.556Z,29.47
2018-12-03T12:39:26.481Z,29.37
2018-12-03T12:41:55.462Z,28.97
2018-12-03T12:44:24.364Z,31.07
2018-12-03T12:46:53.631Z,30.93
2018-12-03T12:49:22.593Z,27.80
2018-12-03T12:51:51.784Z,29.50
2018-12-03T12:54:20.719Z,27.87
2018-12-03T12:56:49.642Z,28.77
2018-12-03T12:59:18.540Z,27.80
2018-12-03T13:01:47.538Z,26.77
2018-12-03T13:04:16.728Z,28.93
2018-12-03T13:06:45.651Z,28.33
2018-12-03T13:09:14.553Z,28.63
2018-12-03T13:11:43.531Z,27.63
2018-12-03T13:14:13.800Z,29.13
2018-12-03T13:16:42.716Z,30.30
2018-12-03T13:19:11.808Z,28.33
2018-12-03T13:21:40.713Z,29.97
2018-12-03T13:24:09.689Z,31.33
2018-12-03T13:26:40.999Z,31.40
2018-12-03T13:29:09.955Z,27.63
2018-12-03T13:31:38.882Z,29.70
2018-12-03T13:34:08.820Z,30.53
2018-12-03T13:36:37.806Z,29.87
2018-12-03T13:39:10.008Z,36.73
2018-12-03T13:41:38.943Z,30.50
2018-12-03T13:44:08.779Z,41.53
2018-12-03T13:46:37.752Z,43.83
2018-12-03T13:49:07.765Z,37.77
2018-12-03T13:51:36.712Z,37.87
2018-12-03T13:54:05.968Z,33.20
2018-12-03T13:56:35.005Z,37.90
2018-12-03T13:59:04.529Z,34.30
2018-12-03T14:01:33.504Z,33.03
2018-12-03T14:04:07.613Z,32.67
2018-12-03T14:06:42.504Z,31.67
2018-12-03T14:12:27.420Z,30.73
2018-12-03T14:15:16.380Z,32.90
2018-12-03T14:17:50.956Z,34.23
2018-12-03T14:20:21.395Z,35.93
2018-12-03T14:22:57.088Z,36.43
2018-12-03T14:25:26.076Z,34.37
2018-12-03T14:27:55.038Z,37.90
2018-12-03T14:30:24.050Z,40.63
2018-12-03T14:32:53.038Z,36.70
2018-12-03T14:35:21.991Z,40.07
2018-12-03T14:37:51.077Z,41.50
2018-12-03T14:40:20.182Z,42.97
2018-12-03T14:42:49.374Z,40.43
2018-12-03T14:45:18.615Z,40.57
2018-12-03T14:47:47.509Z,41.60
2018-12-03T14:50:16.503Z,39.10
2018-12-03T14:52:45.595Z,39.70
2018-12-03T14:55:14.678Z,39.17
2018-12-03T14:57:43.699Z,41.17
2018-12-03T15:00:15.442Z,37.57
2018-12-03T15:02:44.727Z,39.87
2018-12-03T15:05:13.802Z,39.97
2018-12-03T15:07:43.094Z,43.17
2018-12-03T15:10:12.098Z,44.20
2018-12-03T15:12:41.820Z,43.70
2018-12-03T15:15:11.690Z,40.27
2018-12-03T15:17:42.549Z,49.30
2018-12-03T15:20:12.287Z,49.70
2018-12-03T15:22:41.417Z,54.83
2018-12-03T15:25:12.590Z,58.13
2018-12-03T15:27:41.721Z,56.00
2018-12-03T15:30:12.416Z,53.33
2018-12-03T15:32:41.390Z,48.77
2018-12-03T15:35:11.317Z,53.37
2018-12-03T15:37:40.645Z,55.67
2018-12-03T15:40:12.941Z,56.03
2018-12-03T15:42:42.024Z,57.27
2018-12-03T15:45:12.698Z,54.87
2018-12-03T15:47:42.428Z,54.97
2018-12-03T15:50:11.590Z,55.63
2018-12-03T15:52:40.578Z,62.57
2018-12-03T15:55:09.768Z,58.40
2018-12-03T15:57:38.843Z,57.73
2018-12-03T16:00:11.629Z,52.30
2018-12-03T16:02:40.688Z,51.37
2018-12-03T16:05:12.704Z,50.40
2018-12-03T16:07:41.751Z,49.80
2018-12-03T16:10:12.967Z,49.63
2018-12-03T16:12:42.481Z,52.37
2018-12-03T16:15:11.554Z,50.57
2018-12-03T16:17:41.991Z,67.47
2018-12-03T16:20:11.575Z,59.97
2018-12-03T16:22:40.516Z,64.47
2018-12-03T16:25:09.696Z,58.27
2018-12-03T16:27:38.705Z,53.70
2018-12-03T16:30:12.957Z,52.20
2018-12-03T16:32:41.919Z,54.27
2018-12-03T16:35:11.911Z,53.40
2018-12-03T16:37:41.708Z,54.10
2018-12-03T16:40:53.119Z,55.17
2018-12-03T16:43:22.842Z,51.97
2018-12-03T16:45:51.796Z,54.87
2018-12-03T16:48:21.386Z,56.53
2018-12-03T16:50:50.435Z,54.07
2018-12-03T16:53:19.655Z,49.30
2018-12-03T16:55:48.632Z,50.07
2018-12-03T16:58:18.442Z,48.67
2018-12-03T17:01:00.129Z,46.53
2018-12-03T17:03:29.637Z,46.20
2018-12-03T17:05:58.608Z,45.80
2018-12-03T17:08:27.752Z,48.03
2018-12-03T17:10:56.923Z,47.73
2018-12-03T17:13:26.115Z,51.50
2018-12-03T17:15:55.049Z,93.90
2018-12-03T17:18:27.198Z,73.70
2018-12-03T17:21:08.155Z,60.43
2018-12-03T17:23:48.239Z,52.30
2018-12-03T17:26:17.309Z,53.27
2018-12-03T17:28:46.236Z,54.00
2018-12-03T17:31:18.590Z,56.43
2018-12-03T17:33:48.400Z,57.53
2018-12-03T17:36:17.446Z,56.80
2018-12-03T17:38:46.603Z,50.67
2018-12-03T17:41:15.618Z,52.70
2018-12-03T17:43:45.355Z,53.87
2018-12-03T17:46:14.484Z,50.13
2018-12-03T17:48:43.591Z,49.47
2018-12-03T17:51:12.740Z,48.13
2018-12-03T17:53:41.670Z,46.73
2018-12-03T17:56:10.568Z,54.70
2018-12-03T17:58:39.704Z,55.93
2018-12-03T18:01:08.855Z,54.90
2018-12-03T18:03:37.873Z,57.70
2018-12-03T18:06:06.867Z,52.17
2018-12-03T18:08:35.816Z,51.93
2018-12-03T18:11:05.839Z,57.57
2018-12-03T18:13:42.691Z,54.67
2018-12-03T18:16:19.215Z,68.40
2018-12-03T18:18:48.300Z,80.37
2018-12-03T18:21:17.230Z,65.77
2018-12-03T18:23:46.342Z,57.50
2018-12-03T18:26:15.405Z,52.50
2018-12-03T18:28:44.459Z,53.13
2018-12-03T18:31:14.518Z,53.90
2018-12-03T18:33:45.310Z,56.33
2018-12-03T18:36:14.393Z,64.33
2018-12-03T18:38:46.835Z,62.10
2018-12-03T18:41:15.917Z,59.87
2018-12-03T18:43:45.814Z,55.47
2018-12-03T18:46:19.422Z,54.27
2018-12-03T18:48:51.334Z,57.17
2018-12-03T18:51:20.317Z,54.87
2018-12-03T18:53:49.665Z,56.53
2018-12-03T18:56:18.905Z,56.27
2018-12-03T18:58:53.182Z,55.20
2018-12-03T19:01:29.759Z,55.20
2018-12-03T19:04:33.065Z,59.27
2018-12-03T19:07:06.541Z,58.23
2018-12-03T19:09:42.837Z,53.47
2018-12-03T19:12:12.164Z,59.17
2018-12-03T19:14:42.170Z,54.70
2018-12-03T19:17:15.372Z,52.37
2018-12-03T19:19:56.550Z,52.23
2018-12-03T19:22:39.417Z,52.80
2018-12-03T19:25:15.865Z,53.20
2018-12-03T19:27:44.805Z,58.87
2018-12-03T19:30:15.299Z,54.97
2018-12-03T19:32:44.407Z,55.33
2018-12-03T19:35:14.443Z,53.07
2018-12-03T19:37:46.984Z,52.00
2018-12-03T19:40:19.990Z,51.93
2018-12-03T19:42:49.272Z,52.40
2018-12-03T19:45:18.460Z,47.43
2018-12-03T19:47:48.613Z,51.70
2018-12-03T19:50:17.638Z,47.50
2018-12-03T19:52:49.201Z,48.87
2018-12-03T19:55:18.447Z,46.70
2018-12-03T19:57:51.032Z,49.60
2018-12-03T20:00:20.043Z,47.03
2018-12-03T20:02:49.060Z,48.80
2018-12-03T20:05:19.312Z,46.57
2018-12-03T20:07:48.395Z,48.47
2018-12-03T20:10:17.633Z,47.27
2018-12-03T20:13:03.341Z,50.50
2018-12-03T20:15:32.473Z,48.80
2018-12-03T20:18:01.726Z,46.13
2018-12-03T20:20:42.754Z,49.00
2018-12-03T20:23:16.722Z,48.37
2018-12-03T20:27:08.984Z,45.40
2018-12-03T20:33:23.608Z,47.47
2018-12-03T20:36:21.743Z,44.97
2018-12-03T20:39:11.829Z,45.90
2018-12-03T20:41:50.404Z,45.27
2018-12-03T20:44:39.583Z,51.23
2018-12-03T20:47:25.380Z,43.27
2018-12-03T20:50:31.917Z,47.37
2018-12-03T20:53:12.495Z,48.90
2018-12-03T20:55:46.590Z,45.97
2018-12-03T20:58:24.475Z,48.30
2018-12-03T21:01:01.208Z,48.87
2018-12-03T21:03:38.027Z,47.80
2018-12-03T21:06:11.002Z,46.10
2018-12-03T21:08:43.931Z,47.33
2018-12-03T21:11:18.689Z,45.33
2018-12-03T21:14:00.359Z,44.57
2018-12-03T21:16:33.679Z,47.43
2018-12-03T21:19:10.776Z,46.70
2018-12-03T21:21:43.986Z,45.73
2018-12-03T21:24:17.601Z,44.40
2018-12-03T21:26:54.157Z,46.23
2018-12-03T21:29:32.516Z,48.77
2018-12-03T21:32:09.079Z,45.87
2018-12-03T21:34:41.924Z,44.90
2018-12-03T21:37:15.631Z,42.80
2018-12-03T21:39:52.182Z,44.07
2018-12-03T21:42:24.357Z,44.63
2018-12-03T21:44:56.083Z,44.03
2018-12-03T21:47:28.893Z,43.40
2018-12-03T21:50:05.887Z,43.33
2018-12-03T21:52:36.163Z,46.47
2018-12-03T21:55:09.131Z,48.03
2018-12-03T21:57:50.078Z,47.37
2018-12-03T22:00:27.176Z,48.63
2018-12-03T22:03:04.897Z,46.97
2018-12-03T22:05:43.107Z,43.27
2018-12-03T22:08:20.571Z,44.00
2018-12-03T22:10:54.561Z,41.60
2018-12-03T22:13:31.401Z,42.07
2018-12-03T22:16:08.563Z,40.57
2018-12-03T22:18:41.468Z,41.20
2018-12-03T22:21:14.195Z,43.70
2018-12-03T22:23:50.871Z,41.63
2018-12-03T22:26:24.687Z,40.33
2018-12-03T22:28:58.104Z,43.00
2018-12-03T22:31:30.953Z,44.47
2018-12-03T22:34:04.385Z,42.03
2018-12-03T22:36:36.824Z,42.07
2018-12-03T22:39:15.052Z,40.87
2018-12-03T22:41:48.518Z,40.63
2018-12-03T22:44:21.325Z,39.10
2018-12-03T22:46:54.646Z,43.47
2018-12-03T22:49:30.907Z,44.83
2018-12-03T22:52:08.817Z,44.97
2018-12-03T22:54:41.650Z,42.03
2018-12-03T22:57:18.282Z,40.47
2018-12-03T22:59:51.980Z,39.17
2018-12-03T23:02:24.830Z,38.77
2018-12-03T23:04:58.938Z,39.93
2018-12-03T23:07:32.747Z,42.57
2018-12-03T23:10:10.238Z,41.80
2018-12-03T23:12:44.274Z,41.70
2018-12-03T23:15:17.853Z,59.33
2018-12-03T23:17:51.763Z,51.67
2018-12-03T23:20:29.008Z,44.63
2018-12-03T23:23:05.922Z,40.10
2018-12-03T23:25:42.943Z,40.17
2018-12-03T23:28:17.063Z,41.13
2018-12-03T23:30:54.727Z,42.50
2018-12-03T23:33:28.149Z,41.93
2018-12-03T23:36:02.017Z,41.90
2018-12-03T23:38:34.357Z,39.77
2018-12-03T23:41:06.619Z,40.07
2018-12-03T23:43:40.361Z,40.70
2018-12-03T23:46:17.817Z,41.00
2018-12-03T23:48:48.802Z,42.60
2018-12-03T23:51:22.217Z,41.03
2018-12-03T23:53:59.942Z,40.90
2018-12-03T23:56:37.886Z,40.33
2018-12-03T23:59:11.482Z,37.97
